sensor_id;sensor_type;location;lat;lon;timestamp;temperature;humidity
5520;DHT22;2782;52.362;10.012;2022-08-01T00:12:57;23.30;90.50
5520;DHT22;2782;52.362;10.012;2022-08-01T00:42:54;23.30;90.90
5520;DHT22;2782;52.362;10.012;2022-08-01T00:49:40;23.30;91.10
5520;DHT22;2782;52.362;10.012;2022-08-01T00:56:27;23.30;91.20
5520;DHT22;2782;52.362;10.012;2022-08-01T01:03:12;23.30;91.30
5520;DHT22;2782;52.362;10.012;2022-08-01T01:10:00;23.30;91.40
5520;DHT22;2782;52.362;10.012;2022-08-01T01:16:48;23.30;91.60
5520;DHT22;2782;52.362;10.012;2022-08-01T01:23:46;23.30;91.60
5520;DHT22;2782;52.362;10.012;2022-08-01T01:30:33;23.30;91.80
5520;DHT22;2782;52.362;10.012;2022-08-01T01:37:21;23.30;92.10
5520;DHT22;2782;52.362;10.012;2022-08-01T01:44:06;23.30;92.40
5520;DHT22;2782;52.362;10.012;2022-08-01T01:50:54;23.30;92.50
5520;DHT22;2782;52.362;10.012;2022-08-01T01:57:40;23.30;92.30
5520;DHT22;2782;52.362;10.012;2022-08-01T02:04:23;23.30;92.50
5520;DHT22;2782;52.362;10.012;2022-08-01T02:11:07;23.30;92.40
5520;DHT22;2782;52.362;10.012;2022-08-01T02:18:02;23.30;92.50
5520;DHT22;2782;52.362;10.012;2022-08-01T02:24:49;23.30;92.60
5520;DHT22;2782;52.362;10.012;2022-08-01T02:31:35;23.30;92.60
5520;DHT22;2782;52.362;10.012;2022-08-01T02:38:23;23.30;92.90
5520;DHT22;2782;52.362;10.012;2022-08-01T02:45:07;23.30;92.90
5520;DHT22;2782;52.362;10.012;2022-08-01T02:51:52;23.30;93.00
5520;DHT22;2782;52.362;10.012;2022-08-01T02:58:37;23.20;92.80
5520;DHT22;2782;52.362;10.012;2022-08-01T03:05:20;23.20;92.80
5520;DHT22;2782;52.362;10.012;2022-08-01T03:12:06;23.20;92.70
5520;DHT22;2782;52.362;10.012;2022-08-01T03:18:50;23.20;92.60
5520;DHT22;2782;52.362;10.012;2022-08-01T03:25:35;23.20;92.70
5520;DHT22;2782;52.362;10.012;2022-08-01T03:32:19;23.20;92.70
5520;DHT22;2782;52.362;10.012;2022-08-01T03:39:03;23.20;92.70
5520;DHT22;2782;52.362;10.012;2022-08-01T03:45:48;23.20;92.70
5520;DHT22;2782;52.362;10.012;2022-08-01T03:52:33;23.20;92.70
5520;DHT22;2782;52.362;10.012;2022-08-01T03:59:16;23.20;92.70
5520;DHT22;2782;52.362;10.012;2022-08-01T04:05:58;23.20;92.70
5520;DHT22;2782;52.362;10.012;2022-08-01T04:12:41;23.20;92.80
5520;DHT22;2782;52.362;10.012;2022-08-01T04:19:23;23.20;92.70
5520;DHT22;2782;52.362;10.012;2022-08-01T04:26:07;23.10;92.70
5520;DHT22;2782;52.362;10.012;2022-08-01T04:32:54;23.20;92.70
5520;DHT22;2782;52.362;10.012;2022-08-01T04:39:37;23.20;92.80
5520;DHT22;2782;52.362;10.012;2022-08-01T04:46:20;23.20;92.70
5520;DHT22;2782;52.362;10.012;2022-08-01T04:53:04;23.20;92.70
5520;DHT22;2782;52.362;10.012;2022-08-01T04:59:45;23.10;92.70
5520;DHT22;2782;52.362;10.012;2022-08-01T05:06:27;23.10;92.70
5520;DHT22;2782;52.362;10.012;2022-08-01T05:13:10;23.10;92.70
5520;DHT22;2782;52.362;10.012;2022-08-01T05:19:51;23.20;92.80
5520;DHT22;2782;52.362;10.012;2022-08-01T05:26:33;23.10;92.70
5520;DHT22;2782;52.362;10.012;2022-08-01T05:33:16;23.20;92.80
5520;DHT22;2782;52.362;10.012;2022-08-01T05:39:58;23.20;92.90
5520;DHT22;2782;52.362;10.012;2022-08-01T05:46:40;23.20;92.90
5520;DHT22;2782;52.362;10.012;2022-08-01T05:53:23;23.20;93.10
5520;DHT22;2782;52.362;10.012;2022-08-01T06:00:06;23.20;93.10
5520;DHT22;2782;52.362;10.012;2022-08-01T06:06:48;23.20;92.80
5520;DHT22;2782;52.362;10.012;2022-08-01T06:13:31;23.20;90.70
5520;DHT22;2782;52.362;10.012;2022-08-01T06:20:13;23.20;90.50
5520;DHT22;2782;52.362;10.012;2022-08-01T06:26:54;23.20;92.10
5520;DHT22;2782;52.362;10.012;2022-08-01T06:33:37;23.20;92.20
5520;DHT22;2782;52.362;10.012;2022-08-01T06:40:19;23.20;92.40
5520;DHT22;2782;52.362;10.012;2022-08-01T06:47:01;23.20;92.50
5520;DHT22;2782;52.362;10.012;2022-08-01T06:53:43;23.20;92.50
5520;DHT22;2782;52.362;10.012;2022-08-01T07:00:26;23.20;92.40
5520;DHT22;2782;52.362;10.012;2022-08-01T07:07:08;23.20;92.40
5520;DHT22;2782;52.362;10.012;2022-08-01T07:13:51;23.20;92.40
5520;DHT22;2782;52.362;10.012;2022-08-01T07:20:32;23.30;92.50
5520;DHT22;2782;52.362;10.012;2022-08-01T07:27:14;23.30;92.40
5520;DHT22;2782;52.362;10.012;2022-08-01T07:33:57;23.40;91.50
5520;DHT22;2782;52.362;10.012;2022-08-01T07:40:38;23.40;91.80
5520;DHT22;2782;52.362;10.012;2022-08-01T07:47:23;23.40;91.60
5520;DHT22;2782;52.362;10.012;2022-08-01T07:54:06;23.40;91.80
5520;DHT22;2782;52.362;10.012;2022-08-01T08:00:48;23.50;91.60
5520;DHT22;2782;52.362;10.012;2022-08-01T08:07:30;23.50;91.70
5520;DHT22;2782;52.362;10.012;2022-08-01T08:14:12;23.40;91.90
5520;DHT22;2782;52.362;10.012;2022-08-01T08:20:54;23.30;91.90
5520;DHT22;2782;52.362;10.012;2022-08-01T08:27:36;23.20;92.70
5520;DHT22;2782;52.362;10.012;2022-08-01T08:34:19;22.90;93.50
5520;DHT22;2782;52.362;10.012;2022-08-01T08:41:01;22.70;94.30
5520;DHT22;2782;52.362;10.012;2022-08-01T08:47:43;22.60;94.40
5520;DHT22;2782;52.362;10.012;2022-08-01T08:54:29;22.70;94.10
5520;DHT22;2782;52.362;10.012;2022-08-01T09:01:11;22.70;93.60
5520;DHT22;2782;52.362;10.012;2022-08-01T09:07:53;22.70;93.40
5520;DHT22;2782;52.362;10.012;2022-08-01T09:14:44;22.70;93.60
5520;DHT22;2782;52.362;10.012;2022-08-01T09:21:26;22.80;93.20
5520;DHT22;2782;52.362;10.012;2022-08-01T09:28:07;22.80;92.90
5520;DHT22;2782;52.362;10.012;2022-08-01T09:34:50;22.90;92.60
5520;DHT22;2782;52.362;10.012;2022-08-01T09:41:32;22.90;92.20
5520;DHT22;2782;52.362;10.012;2022-08-01T09:48:14;22.80;92.50
5520;DHT22;2782;52.362;10.012;2022-08-01T09:54:58;22.60;92.60
5520;DHT22;2782;52.362;10.012;2022-08-01T10:01:45;22.50;92.60
5520;DHT22;2782;52.362;10.012;2022-08-01T10:08:27;22.50;92.20
5520;DHT22;2782;52.362;10.012;2022-08-01T10:15:11;22.40;92.60
5520;DHT22;2782;52.362;10.012;2022-08-01T10:21:56;22.50;93.40
5520;DHT22;2782;52.362;10.012;2022-08-01T10:28:39;22.50;92.00
5520;DHT22;2782;52.362;10.012;2022-08-01T10:35:23;22.60;91.40
5520;DHT22;2782;52.362;10.012;2022-08-01T10:42:06;22.70;90.50
5520;DHT22;2782;52.362;10.012;2022-08-01T10:48:56;22.70;91.90
5520;DHT22;2782;52.362;10.012;2022-08-01T10:55:49;22.60;91.40
5520;DHT22;2782;52.362;10.012;2022-08-01T11:02:32;22.60;90.70
5520;DHT22;2782;52.362;10.012;2022-08-01T11:09:24;22.70;90.00
5520;DHT22;2782;52.362;10.012;2022-08-01T11:16:28;22.80;88.90
5520;DHT22;2782;52.362;10.012;2022-08-01T11:23:19;22.90;88.60
5520;DHT22;2782;52.362;10.012;2022-08-01T11:30:23;22.90;87.20
5520;DHT22;2782;52.362;10.012;2022-08-01T11:37:24;23.00;85.50
5520;DHT22;2782;52.362;10.012;2022-08-01T11:44:08;23.00;85.40
5520;DHT22;2782;52.362;10.012;2022-08-01T11:50:50;23.00;85.40
5520;DHT22;2782;52.362;10.012;2022-08-01T11:57:34;23.00;84.80
5520;DHT22;2782;52.362;10.012;2022-08-01T12:04:17;23.00;83.70
5520;DHT22;2782;52.362;10.012;2022-08-01T12:10:59;23.00;82.50
5520;DHT22;2782;52.362;10.012;2022-08-01T12:17:44;23.00;81.80
5520;DHT22;2782;52.362;10.012;2022-08-01T12:24:26;23.10;81.90
5520;DHT22;2782;52.362;10.012;2022-08-01T12:31:08;23.10;79.90
5520;DHT22;2782;52.362;10.012;2022-08-01T12:37:52;23.10;79.90
5520;DHT22;2782;52.362;10.012;2022-08-01T12:44:34;23.10;78.20
5520;DHT22;2782;52.362;10.012;2022-08-01T12:51:18;23.10;77.60
5520;DHT22;2782;52.362;10.012;2022-08-01T12:58:06;23.10;77.50
5520;DHT22;2782;52.362;10.012;2022-08-01T13:04:51;23.20;78.20
5520;DHT22;2782;52.362;10.012;2022-08-01T13:11:33;23.20;76.60
5520;DHT22;2782;52.362;10.012;2022-08-01T13:18:26;23.20;76.10
5520;DHT22;2782;52.362;10.012;2022-08-01T13:25:12;23.20;75.20
5520;DHT22;2782;52.362;10.012;2022-08-01T13:31:53;23.20;75.90
5520;DHT22;2782;52.362;10.012;2022-08-01T13:38:37;23.20;75.70
5520;DHT22;2782;52.362;10.012;2022-08-01T13:45:36;23.30;75.90
5520;DHT22;2782;52.362;10.012;2022-08-01T13:52:19;23.30;75.90
5520;DHT22;2782;52.362;10.012;2022-08-01T13:59:02;23.30;75.70
5520;DHT22;2782;52.362;10.012;2022-08-01T14:05:43;23.30;74.10
5520;DHT22;2782;52.362;10.012;2022-08-01T14:12:25;23.30;72.30
5520;DHT22;2782;52.362;10.012;2022-08-01T14:19:08;23.30;72.30
5520;DHT22;2782;52.362;10.012;2022-08-01T14:25:50;23.30;73.40
5520;DHT22;2782;52.362;10.012;2022-08-01T14:32:31;23.30;73.80
5520;DHT22;2782;52.362;10.012;2022-08-01T14:39:15;23.30;74.20
5520;DHT22;2782;52.362;10.012;2022-08-01T14:45:56;23.30;73.10
5520;DHT22;2782;52.362;10.012;2022-08-01T14:52:39;23.40;73.40
5520;DHT22;2782;52.362;10.012;2022-08-01T14:59:22;23.40;72.90
5520;DHT22;2782;52.362;10.012;2022-08-01T15:06:04;23.40;72.60
5520;DHT22;2782;52.362;10.012;2022-08-01T15:12:46;23.40;73.00
5520;DHT22;2782;52.362;10.012;2022-08-01T15:19:29;23.40;71.80
5520;DHT22;2782;52.362;10.012;2022-08-01T15:26:11;23.40;72.10
5520;DHT22;2782;52.362;10.012;2022-08-01T15:32:54;23.40;71.50
5520;DHT22;2782;52.362;10.012;2022-08-01T15:39:37;23.40;70.70
5520;DHT22;2782;52.362;10.012;2022-08-01T15:46:19;23.40;71.10
5520;DHT22;2782;52.362;10.012;2022-08-01T15:53:00;23.40;69.00
5520;DHT22;2782;52.362;10.012;2022-08-01T15:59:43;23.40;69.40
5520;DHT22;2782;52.362;10.012;2022-08-01T16:06:25;23.40;69.70
5520;DHT22;2782;52.362;10.012;2022-08-01T16:13:07;23.40;69.80
5520;DHT22;2782;52.362;10.012;2022-08-01T16:19:50;23.40;69.90
5520;DHT22;2782;52.362;10.012;2022-08-01T16:26:32;23.40;70.80
5520;DHT22;2782;52.362;10.012;2022-08-01T16:33:13;23.40;69.30
5520;DHT22;2782;52.362;10.012;2022-08-01T16:39:56;23.40;67.60
5520;DHT22;2782;52.362;10.012;2022-08-01T16:46:38;23.40;69.50
5520;DHT22;2782;52.362;10.012;2022-08-01T16:53:21;23.40;69.20
5520;DHT22;2782;52.362;10.012;2022-08-01T17:00:06;23.40;68.40
5520;DHT22;2782;52.362;10.012;2022-08-01T17:06:48;23.40;66.40
5520;DHT22;2782;52.362;10.012;2022-08-01T17:13:31;23.40;65.40
5520;DHT22;2782;52.362;10.012;2022-08-01T17:20:14;23.30;64.80
5520;DHT22;2782;52.362;10.012;2022-08-01T17:26:56;23.30;64.40
5520;DHT22;2782;52.362;10.012;2022-08-01T17:33:38;23.30;64.40
5520;DHT22;2782;52.362;10.012;2022-08-01T17:40:22;23.30;63.30
5520;DHT22;2782;52.362;10.012;2022-08-01T17:47:04;23.30;63.80
5520;DHT22;2782;52.362;10.012;2022-08-01T17:53:45;23.30;64.00
5520;DHT22;2782;52.362;10.012;2022-08-01T18:00:28;23.30;63.90
5520;DHT22;2782;52.362;10.012;2022-08-01T18:07:10;23.20;63.80
5520;DHT22;2782;52.362;10.012;2022-08-01T18:13:52;23.10;62.80
5520;DHT22;2782;52.362;10.012;2022-08-01T18:20:35;22.90;63.00
5520;DHT22;2782;52.362;10.012;2022-08-01T18:27:16;22.90;63.50
5520;DHT22;2782;52.362;10.012;2022-08-01T18:33:58;22.80;63.50
5520;DHT22;2782;52.362;10.012;2022-08-01T18:40:41;22.70;64.00
5520;DHT22;2782;52.362;10.012;2022-08-01T18:47:23;22.60;64.10
5520;DHT22;2782;52.362;10.012;2022-08-01T18:54:05;22.90;63.90
5520;DHT22;2782;52.362;10.012;2022-08-01T19:00:48;23.00;63.40
5520;DHT22;2782;52.362;10.012;2022-08-01T19:07:29;23.00;63.10
5520;DHT22;2782;52.362;10.012;2022-08-01T19:14:11;23.00;63.20
5520;DHT22;2782;52.362;10.012;2022-08-01T19:20:54;22.90;63.30
5520;DHT22;2782;52.362;10.012;2022-08-01T19:27:39;22.90;63.00
5520;DHT22;2782;52.362;10.012;2022-08-01T19:34:23;22.80;63.10
5520;DHT22;2782;52.362;10.012;2022-08-01T19:41:06;22.80;63.40
5520;DHT22;2782;52.362;10.012;2022-08-01T19:47:49;22.70;63.00
5520;DHT22;2782;52.362;10.012;2022-08-01T19:54:33;22.70;63.10
5520;DHT22;2782;52.362;10.012;2022-08-01T20:01:17;22.50;63.00
5520;DHT22;2782;52.362;10.012;2022-08-01T20:07:59;22.50;63.10
5520;DHT22;2782;52.362;10.012;2022-08-01T20:14:41;22.40;63.20
5520;DHT22;2782;52.362;10.012;2022-08-01T20:21:26;22.40;63.50
5520;DHT22;2782;52.362;10.012;2022-08-01T20:28:08;22.50;63.80
5520;DHT22;2782;52.362;10.012;2022-08-01T20:34:51;22.70;64.10
5520;DHT22;2782;52.362;10.012;2022-08-01T20:41:34;22.70;64.10
5520;DHT22;2782;52.362;10.012;2022-08-01T20:48:17;22.80;64.10
5520;DHT22;2782;52.362;10.012;2022-08-01T20:54:59;22.80;64.10
5520;DHT22;2782;52.362;10.012;2022-08-01T21:01:46;22.80;64.10
5520;DHT22;2782;52.362;10.012;2022-08-01T21:08:33;22.80;64.10
5520;DHT22;2782;52.362;10.012;2022-08-01T21:15:24;22.80;64.00
5520;DHT22;2782;52.362;10.012;2022-08-01T21:22:11;22.80;64.00
5520;DHT22;2782;52.362;10.012;2022-08-01T21:28:55;22.80;63.90
5520;DHT22;2782;52.362;10.012;2022-08-01T21:35:40;22.80;63.80
5520;DHT22;2782;52.362;10.012;2022-08-01T21:42:25;22.80;63.80
5520;DHT22;2782;52.362;10.012;2022-08-01T21:49:07;22.70;63.70
5520;DHT22;2782;52.362;10.012;2022-08-01T21:55:55;22.70;63.70
5520;DHT22;2782;52.362;10.012;2022-08-01T22:02:43;22.70;63.70
5520;DHT22;2782;52.362;10.012;2022-08-01T22:09:25;22.70;63.70
5520;DHT22;2782;52.362;10.012;2022-08-01T22:16:08;22.70;63.60
5520;DHT22;2782;52.362;10.012;2022-08-01T22:22:52;22.60;63.50
5520;DHT22;2782;52.362;10.012;2022-08-01T22:29:34;22.60;63.50
5520;DHT22;2782;52.362;10.012;2022-08-01T22:36:15;22.60;63.50
5520;DHT22;2782;52.362;10.012;2022-08-01T22:43:02;22.60;63.50
5520;DHT22;2782;52.362;10.012;2022-08-01T22:49:54;22.60;63.50
5520;DHT22;2782;52.362;10.012;2022-08-01T22:56:41;22.60;63.30
5520;DHT22;2782;52.362;10.012;2022-08-01T23:03:26;22.50;63.20
5520;DHT22;2782;52.362;10.012;2022-08-01T23:10:09;22.50;63.30
5520;DHT22;2782;52.362;10.012;2022-08-01T23:16:52;22.50;63.50
5520;DHT22;2782;52.362;10.012;2022-08-01T23:23:36;22.50;63.70
5520;DHT22;2782;52.362;10.012;2022-08-01T23:30:18;22.40;63.90
5520;DHT22;2782;52.362;10.012;2022-08-01T23:37:00;22.40;63.70
5520;DHT22;2782;52.362;10.012;2022-08-01T23:43:43;22.40;63.80
5520;DHT22;2782;52.362;10.012;2022-08-01T23:50:26;22.40;63.50
5520;DHT22;2782;52.362;10.012;2022-08-01T23:57:10;22.30;63.30
